Time;durP1;ratioP1;P1;durP2;ratioP2;P2;SDS_P1;SDS_P2;PMS_P1;PMS_P2;Temp;Humidity;BMP_temperature;BMP_pressure;BME280_temperature;BME280_humidity;BME280_pressure;Samples;Min_cycle;Max_cycle;Signal;HPM_P1;HPM_P2
2022/03/23 00:01:09;;;;;;;48.58;30.02;;;8.00;99.90;;;;;;5075745;28;20044;-89
2022/03/23 00:03:35;;;;;;;53.30;31.77;;;7.20;99.90;;;;;;5072068;28;20062;-91
2022/03/23 00:06:04;;;;;;;59.88;33.17;;;7.20;99.90;;;;;;5064791;28;20131;-90
2022/03/23 00:08:30;;;;;;;49.67;29.02;;;7.10;99.90;;;;;;5051488;28;20138;-89
2022/03/23 00:10:56;;;;;;;46.50;29.63;;;7.10;99.90;;;;;;5049705;28;20127;-89
2022/03/23 00:13:22;;;;;;;52.47;31.83;;;7.10;99.90;;;;;;5050238;28;20139;-89
2022/03/23 00:15:48;;;;;;;56.28;33.03;;;7.30;99.90;;;;;;5016411;28;20561;-90
2022/03/23 00:18:15;;;;;;;55.70;32.42;;;7.00;99.90;;;;;;5034340;28;20044;-89
2022/03/23 00:20:41;;;;;;;53.53;31.77;;;7.00;99.90;;;;;;5065565;28;20052;-90
2022/03/23 00:23:10;;;;;;;55.53;30.42;;;7.00;99.90;;;;;;5051022;28;20051;-90
2022/03/23 00:25:36;;;;;;;56.95;33.33;;;7.60;99.90;;;;;;5052152;28;20101;-90
2022/03/23 00:28:03;;;;;;;49.75;30.20;;;6.90;99.90;;;;;;5066638;28;20053;-90
2022/03/23 00:30:29;;;;;;;51.47;30.40;;;6.90;99.90;;;;;;5068004;28;20055;-89
2022/03/23 00:32:55;;;;;;;55.08;30.60;;;6.80;99.90;;;;;;5049274;28;20048;-89
2022/03/23 00:35:22;;;;;;;59.90;31.00;;;6.80;99.90;;;;;;5068698;28;20587;-90
2022/03/23 00:37:49;;;;;;;49.15;30.02;;;6.80;99.90;;;;;;5048808;28;20106;-90
2022/03/23 00:40:14;;;;;;;50.83;29.73;;;6.80;99.90;;;;;;5050044;28;20048;-90
2022/03/23 00:42:40;;;;;;;55.05;30.88;;;6.80;99.90;;;;;;5049352;28;20048;-90
2022/03/23 00:45:07;;;;;;;55.17;32.33;;;6.70;99.90;;;;;;5065913;28;20036;-91
2022/03/23 00:47:34;;;;;;;49.65;30.00;;;6.70;99.90;;;;;;5049979;28;20055;-91
2022/03/23 00:50:00;;;;;;;51.33;29.88;;;6.70;99.90;;;;;;5065866;28;20056;-90
2022/03/23 00:52:25;;;;;;;47.28;27.17;;;6.70;99.90;;;;;;5050327;28;20046;-90
2022/03/23 00:54:51;;;;;;;46.03;27.45;;;6.70;99.90;;;;;;5065435;28;20079;-90
2022/03/23 00:57:17;;;;;;;46.53;28.02;;;6.60;99.90;;;;;;5034216;28;20412;-90
2022/03/23 00:59:43;;;;;;;50.35;29.42;;;6.60;99.90;;;;;;5067832;28;20521;-90
2022/03/23 01:02:10;;;;;;;43.80;27.05;;;5.20;99.90;;;;;;5018896;28;20047;-90
2022/03/23 01:04:36;;;;;;;49.33;28.42;;;6.60;99.90;;;;;;5032933;28;20044;-90
2022/03/23 01:07:03;;;;;;;52.03;27.55;;;6.80;99.90;;;;;;5048835;28;20044;-90
2022/03/23 01:09:29;;;;;;;50.35;30.05;;;6.50;99.90;;;;;;5035244;28;20051;-90
2022/03/23 01:11:55;;;;;;;49.47;28.70;;;6.50;99.90;;;;;;5037516;28;20120;-90
2022/03/23 01:14:23;;;;;;;51.55;30.63;;;6.40;99.90;;;;;;5049768;28;20040;-91
2022/03/23 01:16:50;;;;;;;53.50;29.35;;;6.40;99.90;;;;;;5048952;28;20047;-90
2022/03/23 01:19:18;;;;;;;47.05;29.20;;;6.40;99.90;;;;;;5048998;28;20403;-90
2022/03/23 01:21:44;;;;;;;51.17;31.17;;;6.40;99.90;;;;;;5032890;28;20044;-90
2022/03/23 01:24:10;;;;;;;49.95;28.40;;;6.30;99.90;;;;;;5065140;28;20415;-90
2022/03/23 01:26:36;;;;;;;56.10;31.85;;;6.30;99.90;;;;;;5033272;28;20051;-90
2022/03/23 01:29:03;;;;;;;56.65;30.17;;;6.20;99.90;;;;;;5048336;28;20063;-90
2022/03/23 01:31:30;;;;;;;50.78;31.63;;;6.20;99.90;;;;;;5034343;28;20041;-90
2022/03/23 01:33:59;;;;;;;51.25;29.63;;;6.20;99.90;;;;;;5035654;28;20048;-90
2022/03/23 01:36:31;;;;;;;47.05;28.23;;;6.20;99.90;;;;;;5050741;28;20224;-90
2022/03/23 01:38:58;;;;;;;38.50;22.73;;;7.30;99.90;;;;;;5074163;28;20044;-90
2022/03/23 01:41:25;;;;;;;49.33;29.50;;;6.20;99.90;;;;;;5072029;28;20032;-91
2022/03/23 01:43:51;;;;;;;49.47;27.38;;;6.10;99.90;;;;;;5055385;28;20108;-91
2022/03/23 01:46:18;;;;;;;54.33;27.73;;;6.40;99.90;;;;;;5067166;28;20075;-90
2022/03/23 01:48:45;;;;;;;52.33;29.98;;;6.10;99.90;;;;;;5033066;28;20040;-90
2022/03/23 01:51:11;;;;;;;43.80;27.38;;;6.00;99.90;;;;;;5032493;28;20132;-93
2022/03/23 01:53:37;;;;;;;48.47;28.83;;;6.00;99.90;;;;;;5065705;28;20037;-93
2022/03/23 01:56:04;;;;;;;45.55;28.45;;;7.20;99.90;;;;;;5033288;28;20045;-93
2022/03/23 01:58:29;;;;;;;48.10;27.40;;;5.90;99.90;;;;;;5015335;28;20123;-93
2022/03/23 02:00:55;;;;;;;41.90;25.80;;;5.90;99.90;;;;;;5033358;28;20087;-93
2022/03/23 02:03:21;;;;;;;43.75;26.27;;;5.80;99.90;;;;;;5031315;28;20387;-89
2022/03/23 02:05:48;;;;;;;47.60;27.55;;;5.80;99.90;;;;;;5015474;28;20519;-90
2022/03/23 02:08:15;;;;;;;57.75;29.20;;;6.20;99.90;;;;;;5048440;28;20048;-89
2022/03/23 02:10:41;;;;;;;49.38;27.38;;;5.70;99.90;;;;;;5031753;28;20375;-90
2022/03/23 02:13:09;;;;;;;45.22;28.05;;;5.70;99.90;;;;;;5032069;28;20076;-90
2022/03/23 02:15:35;;;;;;;47.80;28.10;;;5.60;99.90;;;;;;5031170;28;20048;-90
2022/03/23 02:18:02;;;;;;;54.00;29.50;;;5.60;99.90;;;;;;5048962;28;20049;-91
2022/03/23 02:20:28;;;;;;;48.88;29.10;;;5.60;99.90;;;;;;5047499;28;20044;-91
2022/03/23 02:22:54;;;;;;;49.92;28.38;;;5.60;99.90;;;;;;5048654;28;20098;-90
2022/03/23 02:25:26;;;;;;;52.63;26.65;;;6.90;99.90;;;;;;5035144;28;20488;-90
2022/03/23 02:27:54;;;;;;;36.33;20.60;;;5.60;99.90;;;;;;5055700;28;20060;-91
2022/03/23 02:30:20;;;;;;;44.45;26.88;;;5.60;99.90;;;;;;5020199;28;20759;-90
2022/03/23 02:32:46;;;;;;;46.17;27.35;;;6.20;99.90;;;;;;5034348;28;20048;-90
2022/03/23 02:35:12;;;;;;;43.33;27.75;;;5.50;99.90;;;;;;5056838;28;20036;-91
2022/03/23 02:37:39;;;;;;;43.42;27.35;;;5.50;99.90;;;;;;5044410;28;20051;-95
2022/03/23 02:40:08;;;;;;;47.67;27.05;;;5.60;99.90;;;;;;5053537;28;20052;-93
2022/03/23 02:42:34;;;;;;;42.97;26.00;;;5.50;99.90;;;;;;5032963;28;20157;-91
2022/03/23 02:45:00;;;;;;;49.95;28.60;;;5.50;99.90;;;;;;5064724;28;20414;-93
2022/03/23 02:47:26;;;;;;;45.45;25.95;;;5.50;99.90;;;;;;5033386;28;20068;-90
2022/03/23 02:49:51;;;;;;;42.03;25.65;;;5.50;99.90;;;;;;5051285;28;20046;-89
2022/03/23 02:52:17;;;;;;;48.88;28.08;;;6.50;99.90;;;;;;5052705;28;20050;-89
2022/03/23 03:03:28;;;;;;;48.92;25.70;;;5.30;99.90;;;;;;5068178;28;20139;-90
2022/03/23 03:05:54;;;;;;;46.10;25.67;;;5.80;99.90;;;;;;5019101;28;20131;-91
2022/03/23 03:11:04;;;;;;;41.90;23.98;;;5.20;99.90;;;;;;5069706;28;20040;-90
2022/03/23 03:13:29;;;;;;;41.80;25.10;;;5.20;99.90;;;;;;5060643;28;20025;-89
2022/03/23 03:16:02;;;;;;;43.00;26.40;;;5.10;99.90;;;;;;5058767;28;20084;-91
2022/03/23 03:18:32;;;;;;;43.47;24.88;;;6.00;99.90;;;;;;5055841;28;20100;-91
2022/03/23 03:21:00;;;;;;;42.28;25.92;;;5.10;99.90;;;;;;5019486;28;20169;-92
2022/03/23 03:23:26;;;;;;;49.67;25.52;;;5.10;99.90;;;;;;5034881;28;20040;-91
2022/03/23 03:25:52;;;;;;;44.92;26.52;;;5.10;99.90;;;;;;5034711;28;20044;-89
2022/03/23 03:28:17;;;;;;;41.80;24.60;;;5.10;99.90;;;;;;5049360;28;20084;-89
2022/03/23 03:30:43;;;;;;;43.83;26.40;;;5.10;99.90;;;;;;5051173;28;20041;-89
2022/03/23 03:33:09;;;;;;;43.75;26.35;;;5.00;99.90;;;;;;5017270;28;20047;-90
2022/03/23 03:35:35;;;;;;;42.05;25.40;;;5.00;99.90;;;;;;5017814;28;20098;-89
2022/03/23 03:38:00;;;;;;;43.10;26.17;;;5.00;99.90;;;;;;5050574;28;20055;-89
2022/03/23 03:40:26;;;;;;;44.38;26.08;;;6.40;99.90;;;;;;5017195;28;20098;-89
2022/03/23 03:42:52;;;;;;;49.42;28.55;;;5.00;99.90;;;;;;5017695;28;20051;-89
2022/03/23 03:45:17;;;;;;;48.60;27.38;;;5.00;99.90;;;;;;5032941;28;20040;-91
2022/03/23 03:47:44;;;;;;;43.22;25.88;;;5.00;99.90;;;;;;5018437;28;20369;-90
2022/03/23 03:50:10;;;;;;;42.22;24.75;;;4.90;99.90;;;;;;5016966;28;20032;-90
2022/03/23 03:52:36;;;;;;;44.95;26.17;;;4.90;99.90;;;;;;5051159;28;20095;-90
2022/03/23 03:55:02;;;;;;;47.95;27.67;;;4.90;99.90;;;;;;5051227;28;20499;-91
2022/03/23 03:57:27;;;;;;;42.50;25.02;;;4.90;99.90;;;;;;5035485;28;20045;-90
2022/03/23 03:59:54;;;;;;;46.33;27.92;;;4.90;99.90;;;;;;5017817;28;20105;-89
2022/03/23 04:02:20;;;;;;;47.03;28.00;;;4.90;99.90;;;;;;5034055;28;20044;-90
2022/03/23 04:04:46;;;;;;;48.60;30.70;;;4.90;99.90;;;;;;5051597;28;20049;-89
2022/03/23 04:07:12;;;;;;;52.50;28.95;;;4.80;99.90;;;;;;5049423;28;20036;-89
2022/03/23 04:09:38;;;;;;;51.92;28.95;;;4.80;99.90;;;;;;5017771;28;20044;-90
2022/03/23 04:12:04;;;;;;;48.83;28.02;;;4.80;99.90;;;;;;5033950;28;20048;-90
2022/03/23 04:14:30;;;;;;;49.20;27.35;;;4.80;99.90;;;;;;5032814;28;20044;-91
2022/03/23 04:16:56;;;;;;;49.95;28.33;;;4.50;99.90;;;;;;5050054;28;20117;-90
2022/03/23 04:19:21;;;;;;;45.08;24.95;;;4.80;99.90;;;;;;5032614;28;20507;-90
2022/03/23 04:21:47;;;;;;;56.83;27.85;;;5.40;99.90;;;;;;5033665;28;20044;-90
2022/03/23 04:24:13;;;;;;;46.58;25.60;;;4.70;99.90;;;;;;5065064;28;20404;-90
2022/03/23 04:26:39;;;;;;;47.65;26.95;;;4.70;99.90;;;;;;5033712;28;20093;-90
2022/03/23 04:29:04;;;;;;;58.72;30.90;;;4.70;99.90;;;;;;5049390;28;20060;-90
2022/03/23 04:31:30;;;;;;;51.53;28.77;;;4.70;99.90;;;;;;5033042;28;20149;-90
2022/03/23 04:33:56;;;;;;;52.63;28.55;;;4.60;99.90;;;;;;5017118;28;20044;-89
2022/03/23 04:36:22;;;;;;;48.22;29.08;;;4.60;99.90;;;;;;5032083;28;20083;-90
2022/03/23 04:38:48;;;;;;;47.92;27.98;;;4.60;99.90;;;;;;5050488;28;20045;-91
2022/03/23 04:41:14;;;;;;;42.15;25.88;;;4.60;99.90;;;;;;5067157;28;20062;-91
2022/03/23 04:43:41;;;;;;;45.83;26.55;;;4.50;99.90;;;;;;5055805;28;20036;-89
2022/03/23 04:46:06;;;;;;;44.70;27.38;;;4.50;99.90;;;;;;5040676;28;20504;-90
2022/03/23 04:48:33;;;;;;;43.85;26.17;;;4.50;99.90;;;;;;5038943;28;20033;-90
2022/03/23 04:50:59;;;;;;;46.20;27.02;;;4.40;99.90;;;;;;5073174;28;20028;-91
2022/03/23 04:53:25;;;;;;;40.63;24.83;;;5.20;99.90;;;;;;5040020;28;20207;-91
2022/03/23 04:55:50;;;;;;;48.95;26.30;;;4.40;99.90;;;;;;5033765;28;20048;-90
2022/03/23 04:58:16;;;;;;;47.92;28.40;;;4.40;99.90;;;;;;5015764;28;20037;-89
2022/03/23 05:00:42;;;;;;;52.35;28.25;;;4.30;99.90;;;;;;5034571;28;20059;-89
2022/03/23 05:03:08;;;;;;;43.20;25.67;;;4.30;99.90;;;;;;5054056;28;20128;-88
2022/03/23 05:05:34;;;;;;;46.78;27.88;;;5.10;99.90;;;;;;5036517;28;20044;-89
2022/03/23 05:08:00;;;;;;;51.70;27.85;;;4.20;99.90;;;;;;5016806;28;20044;-88
2022/03/23 05:10:27;;;;;;;47.63;27.88;;;4.20;99.90;;;;;;5031321;28;20047;-90
2022/03/23 05:12:53;;;;;;;47.70;27.88;;;4.20;99.90;;;;;;5049553;28;20040;-89
2022/03/23 05:15:19;;;;;;;55.35;29.20;;;4.30;99.90;;;;;;5031212;28;20130;-89
2022/03/23 05:17:45;;;;;;;54.85;28.55;;;4.20;99.90;;;;;;5048984;28;20046;-90
2022/03/23 05:20:13;;;;;;;53.15;28.60;;;4.10;99.90;;;;;;5015392;28;20041;-90
2022/03/23 05:22:39;;;;;;;48.80;26.48;;;4.10;99.90;;;;;;5031815;28;20129;-89
2022/03/23 05:25:06;;;;;;;51.67;29.73;;;4.10;99.90;;;;;;5048645;28;20076;-88
2022/03/23 05:27:36;;;;;;;49.60;28.60;;;4.10;99.90;;;;;;5065626;28;20044;-90
2022/03/23 05:30:04;;;;;;;48.17;27.60;;;4.10;99.90;;;;;;5017436;28;20543;-90
2022/03/23 05:32:30;;;;;;;46.72;27.52;;;4.10;99.90;;;;;;5048059;28;20135;-88
2022/03/23 05:34:56;;;;;;;53.25;29.30;;;4.00;99.90;;;;;;5016767;28;20132;-86
2022/03/23 05:37:22;;;;;;;53.45;30.17;;;4.00;99.90;;;;;;5014985;28;20048;-87
2022/03/23 05:39:48;;;;;;;52.53;28.80;;;4.30;99.90;;;;;;5048056;28;20123;-88
2022/03/23 05:42:14;;;;;;;51.63;28.42;;;4.00;99.90;;;;;;5065558;28;20575;-88
2022/03/23 05:44:40;;;;;;;61.05;32.15;;;4.10;99.90;;;;;;5030595;28;20127;-88
2022/03/23 05:47:07;;;;;;;50.15;29.20;;;4.30;99.90;;;;;;5015688;28;20136;-88
2022/03/23 05:49:33;;;;;;;49.05;29.17;;;4.10;99.90;;;;;;5046770;28;20044;-88
2022/03/23 05:51:59;;;;;;;49.92;30.65;;;4.10;99.90;;;;;;5015738;28;20044;-86
2022/03/23 05:54:25;;;;;;;56.88;30.67;;;4.20;99.90;;;;;;5048108;28;20354;-86
2022/03/23 05:56:52;;;;;;;55.67;31.85;;;4.20;99.90;;;;;;5031369;28;20075;-85
2022/03/23 05:59:18;;;;;;;57.35;31.17;;;4.20;99.90;;;;;;5064963;28;20397;-86
2022/03/23 06:01:45;;;;;;;58.78;32.63;;;4.20;99.90;;;;;;5063534;28;20048;-87
2022/03/23 06:04:12;;;;;;;54.10;30.38;;;4.20;99.90;;;;;;5064909;28;20044;-86
2022/03/23 06:06:38;;;;;;;52.20;29.55;;;4.50;99.90;;;;;;5063727;28;20106;-86
2022/03/23 06:09:04;;;;;;;57.15;30.70;;;4.30;99.90;;;;;;5048669;28;20048;-86
2022/03/23 06:11:30;;;;;;;51.13;28.80;;;4.30;99.90;;;;;;5065521;28;20056;-84
2022/03/23 06:13:57;;;;;;;47.83;28.70;;;4.30;99.90;;;;;;5033012;28;20040;-84
2022/03/23 06:16:23;;;;;;;57.42;32.05;;;4.40;99.90;;;;;;5063753;28;20040;-88
2022/03/23 06:18:49;;;;;;;48.85;28.70;;;4.40;99.90;;;;;;5070516;28;20419;-88
2022/03/23 06:21:15;;;;;;;60.97;32.25;;;4.60;99.90;;;;;;5070639;28;20104;-89
2022/03/23 06:23:41;;;;;;;58.90;35.15;;;4.60;99.90;;;;;;5050030;28;20131;-90
2022/03/23 06:26:07;;;;;;;56.60;32.50;;;4.70;99.90;;;;;;5037108;28;20043;-89
2022/03/23 06:28:33;;;;;;;55.95;32.67;;;4.70;99.90;;;;;;5051914;28;20056;-81
2022/03/23 06:30:59;;;;;;;59.70;32.58;;;4.80;99.90;;;;;;5051482;28;20353;-81
2022/03/23 06:33:24;;;;;;;56.63;33.47;;;4.90;99.90;;;;;;5051581;28;20364;-82
2022/03/23 06:35:51;;;;;;;54.05;32.58;;;4.90;99.90;;;;;;5067860;28;20048;-83
2022/03/23 06:38:17;;;;;;;58.15;33.53;;;5.00;99.90;;;;;;5068062;28;20048;-84
2022/03/23 06:40:43;;;;;;;61.67;33.40;;;5.20;99.90;;;;;;5069479;28;20048;-84
2022/03/23 06:43:09;;;;;;;56.95;31.77;;;5.20;99.90;;;;;;5051920;28;20130;-85
2022/03/23 06:45:36;;;;;;;58.72;32.00;;;5.20;99.90;;;;;;5067112;28;20059;-83
2022/03/23 06:48:02;;;;;;;66.95;34.65;;;5.30;99.90;;;;;;5033743;28;20079;-86
2022/03/23 06:50:28;;;;;;;65.35;35.92;;;5.50;99.90;;;;;;5067573;28;20083;-85
2022/03/23 06:52:54;;;;;;;66.97;35.35;;;6.20;99.90;;;;;;5033671;28;20457;-84
2022/03/23 06:55:20;;;;;;;62.00;36.90;;;5.70;99.90;;;;;;5034705;28;20066;-84
2022/03/23 06:57:46;;;;;;;58.03;34.45;;;5.80;99.90;;;;;;5049979;28;20083;-82
2022/03/23 07:00:15;;;;;;;56.28;34.90;;;5.90;99.90;;;;;;5067713;28;20049;-83
2022/03/23 07:02:45;;;;;;;69.05;37.78;;;6.00;99.90;;;;;;5068176;28;20123;-84
2022/03/23 07:05:12;;;;;;;60.88;34.70;;;6.20;99.90;;;;;;5066597;28;20508;-83
2022/03/23 07:07:38;;;;;;;66.82;35.58;;;6.30;99.90;;;;;;5051319;28;20044;-83
2022/03/23 07:10:05;;;;;;;65.75;35.72;;;7.70;99.90;;;;;;5050005;28;20058;-83
2022/03/23 07:12:31;;;;;;;60.60;36.92;;;6.70;99.90;;;;;;5067465;28;20053;-84
2022/03/23 07:14:57;;;;;;;56.63;34.00;;;6.50;99.90;;;;;;5049399;28;20056;-84
2022/03/23 07:17:23;;;;;;;58.70;34.67;;;7.00;99.90;;;;;;5068994;28;20048;-83
2022/03/23 07:19:49;;;;;;;62.30;36.08;;;7.10;99.90;;;;;;5067881;28;20041;-84
2022/03/23 07:22:15;;;;;;;62.15;33.22;;;7.30;99.90;;;;;;5067072;28;20415;-83
2022/03/23 07:24:42;;;;;;;56.22;33.10;;;8.20;99.90;;;;;;5067251;28;20515;-83
2022/03/23 07:27:08;;;;;;;55.30;33.67;;;7.60;99.90;;;;;;5067304;28;20032;-83
2022/03/23 07:29:35;;;;;;;60.90;33.47;;;7.80;99.90;;;;;;5069770;28;20412;-83
2022/03/23 07:32:01;;;;;;;60.03;33.08;;;9.30;99.90;;;;;;5039517;28;20174;-83
2022/03/23 07:34:27;;;;;;;50.97;31.55;;;8.10;99.90;;;;;;5072130;28;20049;-83
2022/03/23 07:36:52;;;;;;;54.88;32.17;;;9.00;99.90;;;;;;5068253;28;20044;-84
2022/03/23 07:39:24;;;;;;;52.63;31.30;;;8.20;99.90;;;;;;5068501;28;20389;-85
2022/03/23 07:41:50;;;;;;;52.22;31.20;;;8.80;99.90;;;;;;5019228;28;20074;-85
2022/03/23 07:44:18;;;;;;;51.45;31.10;;;9.00;99.90;;;;;;5050170;28;20534;-85
2022/03/23 07:46:45;;;;;;;44.38;28.30;;;8.90;99.90;;;;;;5050253;28;20044;-86
2022/03/23 07:49:11;;;;;;;50.38;27.80;;;9.10;99.90;;;;;;5049385;28;20052;-84
2022/03/23 07:51:36;;;;;;;50.05;28.45;;;9.70;99.90;;;;;;5050766;28;20568;-84
2022/03/23 07:54:03;;;;;;;43.80;26.83;;;9.40;99.90;;;;;;5070069;28;20079;-87
2022/03/23 07:56:29;;;;;;;44.38;26.00;;;9.50;99.90;;;;;;5046364;28;20036;-85
2022/03/23 07:58:54;;;;;;;46.80;27.73;;;9.70;99.90;;;;;;5073069;28;20033;-85
2022/03/23 08:01:20;;;;;;;41.75;24.67;;;10.90;99.90;;;;;;5048861;28;20523;-87
2022/03/23 08:03:46;;;;;;;38.58;24.67;;;10.40;99.90;;;;;;5034470;28;20044;-87
2022/03/23 08:06:12;;;;;;;38.05;23.50;;;10.20;99.90;;;;;;5067178;28;20110;-87
2022/03/23 08:08:38;;;;;;;37.13;23.55;;;10.30;99.90;;;;;;5035291;28;20040;-86
2022/03/23 08:11:03;;;;;;;36.60;24.52;;;10.50;99.90;;;;;;5068464;28;20059;-86
2022/03/23 08:13:29;;;;;;;35.72;22.92;;;11.60;99.90;;;;;;5034264;28;20094;-86
2022/03/23 08:15:55;;;;;;;35.03;22.42;;;10.80;99.90;;;;;;5034176;28;20044;-86
2022/03/23 08:18:21;;;;;;;41.97;22.00;;;11.00;99.90;;;;;;5049752;28;20108;-85
2022/03/23 08:20:49;;;;;;;36.13;22.00;;;11.50;99.90;;;;;;5033532;28;20049;-84
2022/03/23 08:23:15;;;;;;;33.33;19.50;;;11.30;99.90;;;;;;5049222;28;20134;-86
2022/03/23 08:25:43;;;;;;;31.90;20.48;;;11.50;99.90;;;;;;5034185;28;20127;-85
2022/03/23 08:28:10;;;;;;;32.58;19.42;;;11.70;99.90;;;;;;5048422;28;20137;-85
2022/03/23 08:30:37;;;;;;;37.03;20.92;;;11.80;99.90;;;;;;5050042;28;20114;-84
2022/03/23 08:33:03;;;;;;;40.50;21.48;;;11.90;99.90;;;;;;5050607;28;20392;-87
2022/03/23 08:35:30;;;;;;;42.20;20.70;;;12.00;99.90;;;;;;5049931;28;20131;-86
2022/03/23 08:37:57;;;;;;;32.67;20.38;;;12.10;99.90;;;;;;5050110;28;20052;-87
2022/03/23 08:40:23;;;;;;;35.17;19.67;;;12.20;99.90;;;;;;5048735;28;20094;-85
2022/03/23 08:42:49;;;;;;;30.88;19.17;;;12.30;99.90;;;;;;5050148;28;20048;-85
2022/03/23 08:45:16;;;;;;;34.42;21.70;;;11.30;99.90;;;;;;5048136;28;20052;-84
2022/03/23 08:47:43;;;;;;;28.33;18.70;;;12.60;99.90;;;;;;5066802;28;20052;-84
2022/03/23 08:50:11;;;;;;;27.27;18.73;;;12.70;99.90;;;;;;5050338;28;20047;-86
2022/03/23 08:52:38;;;;;;;33.55;18.02;;;13.40;99.90;;;;;;5049238;28;20040;-87
2022/03/23 08:55:07;;;;;;;28.95;19.73;;;13.00;99.90;;;;;;5050680;28;20052;-86
2022/03/23 08:57:33;;;;;;;31.95;19.52;;;13.20;99.90;;;;;;5032556;28;20446;-85
2022/03/23 08:59:59;;;;;;;34.03;19.52;;;13.60;99.90;;;;;;5033136;28;20178;-86
2022/03/23 09:02:28;;;;;;;27.13;17.75;;;13.50;99.90;;;;;;5065657;28;20074;-85
2022/03/23 09:04:53;;;;;;;29.60;19.08;;;13.70;99.90;;;;;;5049352;28;20053;-86
2022/03/23 09:07:19;;;;;;;26.55;16.77;;;14.00;99.90;;;;;;5033049;28;20039;-85
2022/03/23 09:09:45;;;;;;;29.00;16.88;;;14.20;99.90;;;;;;5048900;28;20067;-86
2022/03/23 09:12:11;;;;;;;25.90;17.48;;;14.50;98.40;;;;;;5050299;28;20068;-85
2022/03/23 09:14:37;;;;;;;27.60;17.15;;;14.70;96.70;;;;;;5064697;28;20439;-86
2022/03/23 09:17:03;;;;;;;26.42;17.98;;;14.80;94.80;;;;;;5065895;28;20063;-85
2022/03/23 09:19:29;;;;;;;28.27;18.25;;;14.90;93.60;;;;;;5065458;28;20090;-85
2022/03/23 09:21:55;;;;;;;27.13;17.67;;;14.90;92.20;;;;;;5066421;28;20048;-86
2022/03/23 09:24:21;;;;;;;23.48;16.65;;;15.00;90.90;;;;;;5065454;28;20221;-85
2022/03/23 09:26:47;;;;;;;27.50;17.30;;;15.10;88.50;;;;;;5048076;28;20048;-86
2022/03/23 09:29:13;;;;;;;24.63;16.20;;;15.20;85.70;;;;;;5051413;28;20296;-86
2022/03/23 09:31:39;;;;;;;24.55;15.43;;;15.30;82.30;;;;;;5034773;28;20052;-85
2022/03/23 09:34:06;;;;;;;27.60;16.05;;;15.40;80.10;;;;;;5059831;28;20472;-84
2022/03/23 09:39:18;;;;;;;24.35;15.68;;;15.70;74.60;;;;;;5075306;28;20045;-85
2022/03/23 09:41:48;;;;;;;25.30;15.15;;;16.30;73.30;;;;;;5067039;28;20055;-85
2022/03/23 09:44:14;;;;;;;21.45;13.70;;;16.20;69.90;;;;;;5032194;28;20090;-83
2022/03/23 09:46:41;;;;;;;19.65;14.20;;;16.40;67.70;;;;;;5066852;28;20571;-85
2022/03/23 09:49:07;;;;;;;23.13;13.52;;;16.60;63.30;;;;;;5051781;28;20041;-84
2022/03/23 09:51:37;;;;;;;20.50;14.07;;;16.80;61.10;;;;;;5070275;28;20113;-84
2022/03/23 09:54:05;;;;;;;17.48;12.63;;;16.80;60.20;;;;;;5049118;28;20047;-83
2022/03/23 09:56:30;;;;;;;19.13;13.63;;;17.10;59.60;;;;;;5069686;28;20059;-85
2022/03/23 09:58:56;;;;;;;24.45;13.98;;;17.30;59.00;;;;;;5076224;28;20044;-84
2022/03/23 10:01:28;;;;;;;18.13;13.18;;;17.40;57.60;;;;;;5051410;28;20480;-84
2022/03/23 10:04:12;;;;;;;19.47;14.17;;;17.50;55.70;;;;;;5069594;28;20444;-85
2022/03/23 10:07:00;;;;;;;19.42;13.98;;;17.60;54.30;;;;;;5068038;28;20340;-84
2022/03/23 10:09:26;;;;;;;22.98;15.20;;;17.70;52.70;;;;;;5068037;28;20083;-84
2022/03/23 10:12:13;;;;;;;17.38;13.98;;;17.80;54.90;;;;;;5052499;28;20091;-85
2022/03/23 10:15:17;;;;;;;24.35;14.35;;;17.90;54.80;;;;;;5066909;28;20056;-84
2022/03/23 10:17:53;;;;;;;;;;;18.10;50.60;;;;;;5068704;28;20319;-84
2022/03/23 10:20:19;;;;;;;18.90;13.63;;;18.10;48.60;;;;;;5068809;28;20332;-84
2022/03/23 10:22:50;;;;;;;22.77;13.98;;;18.10;54.40;;;;;;5034566;28;20098;-84
2022/03/23 10:25:18;;;;;;;17.95;13.57;;;18.20;54.30;;;;;;5069779;28;20487;-84
2022/03/23 10:27:44;;;;;;;30.00;14.95;;;18.30;53.60;;;;;;5068708;28;20029;-85
2022/03/23 10:30:10;;;;;;;24.55;14.15;;;18.40;52.90;;;;;;5069015;28;20511;-85
2022/03/23 10:32:42;;;;;;;15.18;11.48;;;18.50;53.40;;;;;;5067609;28;20052;-82
2022/03/23 10:35:16;;;;;;;20.73;11.13;;;18.50;51.40;;;;;;5067288;28;20044;-83
2022/03/23 10:37:48;;;;;;;17.00;10.13;;;19.00;50.20;;;;;;5069807;28;20128;-82
2022/03/23 10:40:18;;;;;;;15.00;10.32;;;18.50;50.10;;;;;;5066838;28;20102;-82
2022/03/23 10:42:45;;;;;;;14.88;10.57;;;18.50;48.20;;;;;;5070159;28;20396;-83
2022/03/23 10:45:21;;;;;;;14.02;10.20;;;18.50;49.40;;;;;;5067714;28;20429;-83
2022/03/23 10:47:48;;;;;;;17.23;11.02;;;18.50;47.10;;;;;;5069358;28;20056;-82
2022/03/23 10:50:16;;;;;;;16.25;10.63;;;18.50;47.50;;;;;;5070197;28;20373;-83
2022/03/23 10:53:01;;;;;;;15.93;10.55;;;18.50;46.70;;;;;;5067129;28;20488;-82
2022/03/23 10:55:29;;;;;;;14.75;9.27;;;18.50;43.40;;;;;;5069979;28;20048;-82
2022/03/23 10:58:01;;;;;;;14.63;9.30;;;18.60;46.00;;;;;;5033709;28;20041;-81
2022/03/23 11:00:35;;;;;;;17.88;8.38;;;18.60;45.60;;;;;;5068824;28;20488;-82
2022/03/23 11:03:03;;;;;;;12.27;9.45;;;18.60;44.40;;;;;;5068205;28;20088;-85
2022/03/23 11:05:33;;;;;;;15.27;9.13;;;18.80;46.20;;;;;;5034616;28;20048;-84
2022/03/23 11:08:09;;;;;;;13.15;9.15;;;18.90;45.10;;;;;;5069142;28;20348;-82
2022/03/23 11:16:29;;;;;;;13.27;9.70;;;19.10;44.80;;;;;;5071144;28;20060;-82
2022/03/23 11:19:06;;;;;;;13.50;10.27;;;19.10;45.60;;;;;;5081675;28;20496;-80
2022/03/23 11:21:32;;;;;;;12.45;8.95;;;19.30;45.90;;;;;;5072925;28;20048;-83
2022/03/23 11:23:58;;;;;;;15.60;9.65;;;19.40;46.00;;;;;;5070584;28;20369;-83
2022/03/23 11:26:26;;;;;;;13.68;9.30;;;19.60;45.70;;;;;;5050687;28;20044;-83
2022/03/23 11:28:56;;;;;;;21.70;9.75;;;19.60;44.80;;;;;;5069404;28;20132;-83
2022/03/23 11:31:22;;;;;;;18.42;8.98;;;19.90;44.20;;;;;;5067683;28;20139;-83
2022/03/23 11:33:53;;;;;;;11.00;7.80;;;19.70;43.80;;;;;;5069318;28;20045;-81
2022/03/23 11:36:20;;;;;;;12.95;8.40;;;19.80;43.20;;;;;;5067538;28;20045;-82
2022/03/23 11:38:48;;;;;;;18.98;9.02;;;19.90;43.50;;;;;;5066947;28;20438;-82
2022/03/23 11:41:15;;;;;;;13.40;6.97;;;20.00;43.70;;;;;;5067621;28;20094;-83
2022/03/23 11:43:41;;;;;;;16.92;7.28;;;20.00;42.40;;;;;;5065945;28;20083;-82
2022/03/23 11:46:08;;;;;;;14.77;7.15;;;20.00;42.60;;;;;;5067204;28;20049;-82
2022/03/23 11:49:11;;;;;;;15.32;9.13;;;20.10;42.20;;;;;;5067176;28;20091;-82
2022/03/23 11:52:10;;;;;;;16.20;7.53;;;20.20;39.80;;;;;;5068244;28;20044;-82
2022/03/23 11:57:48;;;;;;;16.00;8.13;;;20.20;42.40;;;;;;5067318;28;20093;-85
2022/03/23 12:00:18;;;;;;;17.10;7.60;;;20.30;40.60;;;;;;5067919;28;20041;-83
2022/03/23 12:02:44;;;;;;;10.98;7.38;;;20.30;42.30;;;;;;5033511;28;20055;-83
2022/03/23 12:05:26;;;;;;;14.02;7.18;;;20.40;41.90;;;;;;5049194;28;20036;-84
2022/03/23 12:07:52;;;;;;;11.10;7.80;;;20.40;40.60;;;;;;5067932;28;20045;-83
2022/03/23 12:10:20;;;;;;;14.35;8.63;;;20.40;42.20;;;;;;5032860;28;20044;-83
2022/03/23 12:12:46;;;;;;;15.15;8.38;;;20.30;41.90;;;;;;5067024;28;20049;-83
2022/03/23 12:15:23;;;;;;;19.75;8.43;;;20.60;42.40;;;;;;5066556;28;20097;-82
2022/03/23 12:17:57;;;;;;;17.77;7.45;;;20.70;41.20;;;;;;5065997;28;20044;-83
2022/03/23 12:20:28;;;;;;;14.80;8.02;;;20.80;41.40;;;;;;5050118;28;20070;-82
2022/03/23 12:23:16;;;;;;;15.65;7.57;;;20.90;42.00;;;;;;5050131;28;20094;-83
2022/03/23 12:25:56;;;;;;;11.73;6.78;;;21.00;41.30;;;;;;5066839;28;20045;-83
2022/03/23 12:28:45;;;;;;;13.25;7.20;;;21.00;41.10;;;;;;5066222;28;20500;-83
2022/03/23 12:31:14;;;;;;;16.55;6.85;;;21.10;40.40;;;;;;5068745;28;20060;-82
2022/03/23 12:33:58;;;;;;;16.10;7.32;;;21.10;40.60;;;;;;5068946;28;20127;-84
2022/03/23 12:37:06;;;;;;;11.30;5.65;;;21.10;39.10;;;;;;5052148;28;20082;-84
2022/03/23 12:39:35;;;;;;;13.80;6.30;;;21.00;40.00;;;;;;5067258;28;20052;-84
2022/03/23 12:42:17;;;;;;;20.00;5.75;;;21.00;39.10;;;;;;5069141;28;20090;-87
2022/03/23 12:44:47;;;;;;;17.52;6.18;;;21.10;39.10;;;;;;5067377;28;20051;-82
2022/03/23 12:47:22;;;;;;;14.73;6.63;;;21.00;39.80;;;;;;5055552;28;20119;-83
2022/03/23 12:58:18;;;;;;;12.75;7.57;;;21.10;39.60;;;;;;5067674;28;20079;-82
2022/03/23 13:00:48;;;;;;;11.63;5.78;;;21.10;39.20;;;;;;5050852;28;20165;-82
2022/03/23 13:03:19;;;;;;;12.43;5.97;;;21.10;39.50;;;;;;5057707;28;20036;-81
2022/03/23 13:05:59;;;;;;;16.23;6.55;;;21.20;39.20;;;;;;5077256;28;20074;-80
2022/03/23 13:08:30;;;;;;;14.25;6.00;;;21.20;39.00;;;;;;5073400;28;20047;-82
2022/03/23 13:11:09;;;;;;;22.30;5.53;;;21.30;39.30;;;;;;5066027;28;20152;-83